Eizo Maru — JD2944 — position and weather

sailwx.info

Track history (hours):
 
Tides and Currents Weather Stations Pressure Air Temp Water Temp Dewpoint Dewpoint Depression Visibility Wind Speed Wind Dir Waves Ship Positions

Eizo Maru

Last reported at 2018-Feb-21 23:25 UTC. Time now 2018-Feb-22 09:22 UTC.
Position N 34°24' E 130°51'.

Length 80 m; draft 5.3 m.

Type: Tanker. MMSI: 431000976.

Date/timePositionNaut miles runAvg speedWind from/ knotsBaromVisibWave heightAir tempDewpointWater temp
2018-Feb-21 23:25N 34°24' E 130°51'511.5
2018-Feb-21 22:59N 34°19' E 130°48'612.6
2018-Feb-21 22:30N 34°14' E 130°49'612.5
2018-Feb-21 22:00N 34°07' E 130°50'612.8
2018-Feb-21 21:31N 34°01' E 130°52'611.6
2018-Feb-21 21:00N 33°55' E 130°53'4 7.8
2018-Feb-21 20:31N 33°58' E 130°57'510.3
2018-Feb-21 20:00N 33°57' E 131°03'612.7
2018-Feb-21 19:30N 33°53' E 131°10'612.5
2018-Feb-21 19:00N 33°51' E 131°17'612.9
2018-Feb-21 18:31N 33°50' E 131°24'712.8
2018-Feb-21 18:00N 33°49' E 131°32'612.8
2018-Feb-21 17:30N 33°47' E 131°39'712.8
2018-Feb-21 16:57N 33°46' E 131°48'1912.9
2018-Feb-21 15:28N 33°43' E 132°10'1612.7
2018-Feb-21 14:11N 33°48' E 132°29'712.6
2018-Feb-21 13:40N 33°52' E 132°35'412.3
2018-Feb-21 13:22N 33°55' E 132°38'8 0.3
2018-Feb-20 09:47N 33°60' E 132°45'312.4
2018-Feb-20 09:30N 33°57' E 132°43'611.8
2018-Feb-20 09:00N 33°53' E 132°37'4712.3
2018-Feb-20 05:09N 33°46' E 131°41'214.7
2018-Feb-20 05:00N 33°46' E 131°38'714.4
2018-Feb-20 04:30N 33°48' E 131°30'713.9
2018-Feb-20 04:00N 33°49' E 131°22'713.7
2018-Feb-20 03:30N 33°51' E 131°14'713.1
2018-Feb-20 03:00N 33°54' E 131°07'612.8
2018-Feb-20 02:30N 33°58' E 131°01'5 9.5
2018-Feb-20 02:00N 33°56' E 130°56'3 6.7
2018-Feb-20 01:30N 33°56' E 130°52'612.5
2018-Feb-20 01:00N 34°02' E 130°52'713.9
2018-Feb-20 00:30N 34°09' E 130°49'714.1
2018-Feb-20 00:00N 34°16' E 130°49'714.1
2018-Feb-19 23:30N 34°23' E 130°48'  
2018-Feb-15 00:39N 34°25' E 130°51'211.9
2018-Feb-15 00:30N 34°24' E 130°49'510.7
2018-Feb-15 00:00N 34°19' E 130°47'612.3
2018-Feb-14 23:30N 34°13' E 130°49'612.5
2018-Feb-14 23:01N 34°07' E 130°50'612.7
2018-Feb-14 22:31N 34°01' E 130°53'611.9
2018-Feb-14 22:01N 33°55' E 130°54'5 9.4
2018-Feb-14 21:30N 33°58' E 130°58'4 8.0
2018-Feb-14 21:00N 33°58' E 131°03'713.5
2018-Feb-14 20:30N 33°54' E 131°09'713.9
2018-Feb-14 20:00N 33°51' E 131°17'714.0
2018-Feb-14 19:30N 33°50' E 131°26'713.5
2018-Feb-14 19:00N 33°48' E 131°34'713.5
2018-Feb-14 18:30N 33°47' E 131°42'2513.3
2018-Feb-14 16:38N 33°43' E 132°11'213.7
2018-Feb-14 16:30N 33°43' E 132°13'1014.1
2018-Feb-14 15:48N 33°46' E 132°24'414.2
2018-Feb-14 15:30N 33°48' E 132°29'714.0
2018-Feb-14 14:58N 33°53' E 132°36'613.9
2018-Feb-14 14:30N 33°57' E 132°42'4 0.2
2018-Feb-13 21:02N 33°60' E 132°45'015.3
2018-Feb-13 21:00N 33°60' E 132°45'814.4
2018-Feb-13 20:26N 33°54' E 132°38'614.0
2018-Feb-13 19:58N 33°49' E 132°32'3413.8
2018-Feb-13 17:30N 33°25' E 132°04'612.6
2018-Feb-13 17:00N 33°19' E 131°60'  
Track history (hours):
 
Tides and Currents Weather Stations Pressure Air Temp Water Temp Dewpoint Dewpoint Depression Visibility Wind Speed Wind Dir Waves Ship Positions

Eizo Maru

Last reported at 2018-Feb-21 23:25 UTC. Time now 2018-Feb-22 09:22 UTC.
Position N 34°24' E 130°51'.

Length 80 m; draft 5.3 m.

Type: Tanker. MMSI: 431000976.

Date/timePositionNaut miles runAvg speedWind from/ knotsBaromVisibWave heightAir tempDewpointWater temp
2018-Feb-21 23:25N 34°24' E 130°51'511.5
2018-Feb-21 22:59N 34°19' E 130°48'612.6
2018-Feb-21 22:30N 34°14' E 130°49'612.5
2018-Feb-21 22:00N 34°07' E 130°50'612.8
2018-Feb-21 21:31N 34°01' E 130°52'611.6
2018-Feb-21 21:00N 33°55' E 130°53'4 7.8
2018-Feb-21 20:31N 33°58' E 130°57'510.3
2018-Feb-21 20:00N 33°57' E 131°03'612.7
2018-Feb-21 19:30N 33°53' E 131°10'612.5
2018-Feb-21 19:00N 33°51' E 131°17'612.9
2018-Feb-21 18:31N 33°50' E 131°24'712.8
2018-Feb-21 18:00N 33°49' E 131°32'612.8
2018-Feb-21 17:30N 33°47' E 131°39'712.8
2018-Feb-21 16:57N 33°46' E 131°48'1912.9
2018-Feb-21 15:28N 33°43' E 132°10'1612.7
2018-Feb-21 14:11N 33°48' E 132°29'712.6
2018-Feb-21 13:40N 33°52' E 132°35'412.3
2018-Feb-21 13:22N 33°55' E 132°38'8 0.3
2018-Feb-20 09:47N 33°60' E 132°45'312.4
2018-Feb-20 09:30N 33°57' E 132°43'611.8
2018-Feb-20 09:00N 33°53' E 132°37'4712.3
2018-Feb-20 05:09N 33°46' E 131°41'214.7
2018-Feb-20 05:00N 33°46' E 131°38'714.4
2018-Feb-20 04:30N 33°48' E 131°30'713.9
2018-Feb-20 04:00N 33°49' E 131°22'713.7
2018-Feb-20 03:30N 33°51' E 131°14'713.1
2018-Feb-20 03:00N 33°54' E 131°07'612.8
2018-Feb-20 02:30N 33°58' E 131°01'5 9.5
2018-Feb-20 02:00N 33°56' E 130°56'3 6.7
2018-Feb-20 01:30N 33°56' E 130°52'612.5
2018-Feb-20 01:00N 34°02' E 130°52'713.9
2018-Feb-20 00:30N 34°09' E 130°49'714.1
2018-Feb-20 00:00N 34°16' E 130°49'714.1
2018-Feb-19 23:30N 34°23' E 130°48'  
2018-Feb-15 00:39N 34°25' E 130°51'211.9
2018-Feb-15 00:30N 34°24' E 130°49'510.7
2018-Feb-15 00:00N 34°19' E 130°47'612.3
2018-Feb-14 23:30N 34°13' E 130°49'612.5
2018-Feb-14 23:01N 34°07' E 130°50'612.7
2018-Feb-14 22:31N 34°01' E 130°53'611.9
2018-Feb-14 22:01N 33°55' E 130°54'5 9.4
2018-Feb-14 21:30N 33°58' E 130°58'4 8.0
2018-Feb-14 21:00N 33°58' E 131°03'713.5
2018-Feb-14 20:30N 33°54' E 131°09'713.9
2018-Feb-14 20:00N 33°51' E 131°17'714.0
2018-Feb-14 19:30N 33°50' E 131°26'713.5
2018-Feb-14 19:00N 33°48' E 131°34'713.5
2018-Feb-14 18:30N 33°47' E 131°42'2513.3
2018-Feb-14 16:38N 33°43' E 132°11'213.7
2018-Feb-14 16:30N 33°43' E 132°13'1014.1
2018-Feb-14 15:48N 33°46' E 132°24'414.2
2018-Feb-14 15:30N 33°48' E 132°29'714.0
2018-Feb-14 14:58N 33°53' E 132°36'613.9
2018-Feb-14 14:30N 33°57' E 132°42'4 0.2
2018-Feb-13 21:02N 33°60' E 132°45'015.3
2018-Feb-13 21:00N 33°60' E 132°45'814.4
2018-Feb-13 20:26N 33°54' E 132°38'614.0
2018-Feb-13 19:58N 33°49' E 132°32'3413.8
2018-Feb-13 17:30N 33°25' E 132°04'612.6
2018-Feb-13 17:00N 33°19' E 131°60'  

Dump ship's entire track history